Time;durP1;ratioP1;P1;durP2;ratioP2;P2;SDS_P1;SDS_P2;PMS_P1;PMS_P2;Temp;Humidity;BMP_temperature;BMP_pressure;BME280_temperature;BME280_humidity;BME280_pressure;Samples;Min_cycle;Max_cycle;Signal;HPM_P1;HPM_P2
2022/11/21 17:05:34;;;;;;;13.32;7.95;;;;;;;5.30;81.21;96609.78;6168595;23;20028;-65
2022/11/21 17:07:59;;;;;;;16.27;9.40;;;;;;;5.29;80.95;96613.28;6131554;23;20021;-67
2022/11/21 17:10:25;;;;;;;14.57;7.95;;;;;;;5.24;80.86;96618.84;6184862;23;20499;-66
2022/11/21 17:12:51;;;;;;;14.88;8.20;;;;;;;5.22;80.61;96614.69;6134197;23;20001;-64
2022/11/21 17:15:16;;;;;;;13.90;8.07;;;;;;;5.18;80.48;96610.66;6184982;23;20048;-67
2022/11/21 17:17:41;;;;;;;17.15;9.13;;;;;;;5.15;80.72;96603.06;6182112;23;20005;-64
2022/11/21 17:20:08;;;;;;;16.08;9.82;;;;;;;5.11;81.35;96591.22;6182889;23;20222;-63
2022/11/21 17:22:33;;;;;;;15.77;9.13;;;;;;;5.09;81.27;96585.31;6134587;23;20323;-64
2022/11/21 17:24:59;;;;;;;23.27;13.57;;;;;;;5.04;81.90;96585.66;6184023;23;20005;-65
2022/11/21 17:27:24;;;;;;;27.35;19.52;;;;;;;5.02;81.52;96586.69;6183242;23;20031;-66
2022/11/21 17:29:50;;;;;;;29.98;21.10;;;;;;;4.96;81.08;96578.41;6184229;23;20007;-66
2022/11/21 17:32:15;;;;;;;29.92;21.13;;;;;;;4.94;81.70;96569.06;6185427;23;19996;-67
2022/11/21 17:34:40;;;;;;;25.92;19.40;;;;;;;4.91;81.86;96567.50;6156477;23;20696;-66
2022/11/21 17:37:06;;;;;;;23.40;15.85;;;;;;;4.91;82.60;96559.72;6181711;23;20004;-66
2022/11/21 17:39:31;;;;;;;28.27;15.90;;;;;;;4.91;82.41;96558.88;6157274;23;20005;-65
2022/11/21 17:41:58;;;;;;;78.78;35.00;;;;;;;4.88;82.83;96554.72;6157593;23;20009;-66
2022/11/21 17:44:24;;;;;;;85.90;40.10;;;;;;;4.87;83.06;96545.28;6183350;23;20005;-65
2022/11/21 17:46:49;;;;;;;64.38;30.27;;;;;;;4.83;81.82;96551.66;6158084;23;20521;-65
2022/11/21 17:49:15;;;;;;;65.03;32.88;;;;;;;4.77;81.86;96552.06;6184831;23;20005;-65
2022/11/21 17:51:40;;;;;;;37.05;21.05;;;;;;;4.76;82.65;96547.84;6185020;23;20343;-65
2022/11/21 17:54:09;;;;;;;23.73;13.00;;;;;;;4.75;83.12;96549.59;6182657;23;20009;-65
2022/11/21 17:56:36;;;;;;;17.08;9.50;;;;;;;4.72;83.05;96539.44;6158683;23;20431;-66
2022/11/21 17:59:02;;;;;;;18.85;9.13;;;;;;;4.71;83.04;96532.59;6134111;23;20223;-66
2022/11/21 18:01:28;;;;;;;17.67;9.75;;;;;;;4.69;83.14;96533.63;6157595;23;20005;-67
2022/11/21 18:03:58;;;;;;;18.52;10.10;;;;;;;4.68;82.86;96522.41;6183546;23;20011;-67
2022/11/21 18:06:24;;;;;;;18.95;8.63;;;;;;;4.64;82.78;96526.16;6184502;23;20005;-66
2022/11/21 18:08:50;;;;;;;15.95;7.97;;;;;;;4.62;83.05;96533.22;6158890;23;20431;-66
2022/11/21 18:11:18;;;;;;;15.95;7.85;;;;;;;4.60;82.91;96536.88;6183877;23;20405;-66
2022/11/21 18:13:44;;;;;;;12.57;6.43;;;;;;;4.60;83.43;96529.91;6158260;23;20009;-66
2022/11/21 18:16:11;;;;;;;14.35;6.53;;;;;;;4.58;83.18;96524.00;6184065;23;20005;-66
2022/11/21 18:18:37;;;;;;;12.75;6.05;;;;;;;4.56;83.29;96518.09;6134394;23;20012;-66
2022/11/21 18:21:07;;;;;;;10.73;5.50;;;;;;;4.55;83.68;96513.00;6132144;23;20005;-67
2022/11/21 18:23:32;;;;;;;10.43;6.57;;;;;;;4.53;82.77;96513.94;6158304;23;20096;-66
2022/11/21 18:26:06;;;;;;;14.82;6.70;;;;;;;4.49;82.63;96515.09;6184148;23;19997;-66
2022/11/21 18:28:31;;;;;;;12.25;6.30;;;;;;;4.46;82.91;96512.72;6158402;23;20429;-66
2022/11/21 18:31:07;;;;;;;12.00;6.05;;;;;;;4.45;83.22;96510.25;6158454;23;20460;-66
2022/11/21 18:33:33;;;;;;;11.30;5.28;;;;;;;4.44;83.64;96509.41;6156296;23;20001;-66
2022/11/21 18:35:59;;;;;;;10.70;5.90;;;;;;;4.43;83.09;96512.94;6184482;23;20056;-66
2022/11/21 18:38:24;;;;;;;12.30;5.75;;;;;;;4.40;83.08;96507.94;6184405;23;19997;-66
2022/11/21 18:40:49;;;;;;;11.00;6.18;;;;;;;4.38;82.93;96502.06;6133677;23;20016;-66
2022/11/21 18:43:15;;;;;;;12.25;6.13;;;;;;;4.34;83.13;96487.63;6184310;23;20000;-66
2022/11/21 18:45:40;;;;;;;14.43;6.97;;;;;;;4.29;83.17;96485.34;6183634;23;20075;-66
2022/11/21 18:48:05;;;;;;;17.92;9.70;;;;;;;4.28;83.43;96480.28;6158297;23;20004;-66
2022/11/21 18:50:33;;;;;;;13.98;8.02;;;;;;;4.25;82.77;96467.50;6183568;23;20009;-66
2022/11/21 18:52:58;;;;;;;11.07;6.55;;;;;;;4.24;83.25;96481.44;6158010;23;20039;-66
2022/11/21 18:55:26;;;;;;;12.57;5.72;;;;;;;4.21;83.15;96479.06;6184004;23;20012;-67
2022/11/21 18:57:51;;;;;;;13.73;6.00;;;;;;;4.59;90.16;96480.69;6184580;23;20441;-66
2022/11/21 19:00:17;;;;;;;9.60;5.18;;;;;;;4.38;82.63;96468.31;6184511;23;20072;-67
2022/11/21 19:02:42;;;;;;;15.48;6.13;;;;;;;4.21;79.74;96458.28;6182084;23;20004;-66
2022/11/21 19:05:08;;;;;;;12.90;6.45;;;;;;;4.08;79.74;96460.09;6156078;23;20001;-66
2022/11/21 19:07:33;;;;;;;10.85;5.43;;;;;;;3.96;79.71;96465.22;6184487;23;20458;-66
2022/11/21 19:09:58;;;;;;;10.98;5.25;;;;;;;3.91;79.87;96458.66;6133068;23;20066;-67
2022/11/21 19:12:24;;;;;;;12.20;5.47;;;;;;;3.83;80.80;96454.03;6157696;23;20345;-67
2022/11/21 19:14:50;;;;;;;9.38;5.00;;;;;;;3.77;80.57;96454.44;6182781;23;20005;-67
2022/11/21 19:17:16;;;;;;;12.10;5.05;;;;;;;3.74;81.42;96444.28;6183379;23;20005;-66
2022/11/21 19:19:43;;;;;;;11.85;5.47;;;;;;;3.70;81.90;96432.47;6183734;23;20296;-66
2022/11/21 19:22:08;;;;;;;13.75;5.68;;;;;;;3.67;81.40;96435.25;6157126;23;20510;-66
2022/11/21 19:24:34;;;;;;;12.38;7.00;;;;;;;3.64;82.63;96428.50;6156580;23;20012;-66
2022/11/21 19:26:59;;;;;;;11.73;5.60;;;;;;;3.60;82.00;96444.41;6183653;23;20001;-66
2022/11/21 19:29:24;;;;;;;9.65;4.90;;;;;;;3.56;81.88;96454.97;6184069;23;20065;-66
2022/11/21 19:31:50;;;;;;;9.65;4.93;;;;;;;3.49;81.34;96464.09;6184047;23;20327;-67
2022/11/21 19:34:15;;;;;;;13.18;6.50;;;;;;;3.42;81.02;96470.63;6172094;23;20009;-67
2022/11/21 19:36:41;;;;;;;11.55;5.53;;;;;;;3.40;81.95;96453.53;6126667;23;20020;-66
2022/11/21 19:39:07;;;;;;;12.13;6.25;;;;;;;3.39;82.24;96451.88;6157006;23;20001;-66
2022/11/21 19:41:32;;;;;;;14.23;6.47;;;;;;;3.37;81.96;96457.16;6182953;23;20050;-66
2022/11/21 19:43:58;;;;;;;13.80;7.50;;;;;;;3.32;82.54;96454.88;6156781;23;20012;-66
2022/11/21 19:46:36;;;;;;;14.60;6.80;;;;;;;3.32;82.43;96456.63;6108266;23;20005;-66
2022/11/21 19:49:02;;;;;;;13.35;6.93;;;;;;;3.32;83.07;96451.47;6133730;23;20442;-66
2022/11/21 19:51:38;;;;;;;12.50;7.47;;;;;;;3.32;82.92;96452.28;6155624;23;20037;-67
2022/11/21 19:54:04;;;;;;;15.75;7.50;;;;;;;3.32;82.89;96461.81;6155280;23;20033;-67
2022/11/21 19:56:30;;;;;;;12.38;7.05;;;;;;;3.32;83.14;96452.28;6157039;23;20012;-67
2022/11/21 19:58:55;;;;;;;13.63;6.80;;;;;;;3.34;83.22;96444.41;6132760;23;20009;-67
2022/11/21 20:01:27;;;;;;;13.30;7.20;;;;;;;3.32;82.75;96435.91;6156277;23;20035;-67
2022/11/21 20:03:55;;;;;;;15.20;7.60;;;;;;;3.35;83.05;96435.72;6129735;23;20008;-66
2022/11/21 20:06:37;;;;;;;16.00;9.25;;;;;;;3.35;83.21;96435.72;6130952;23;20033;-67
2022/11/21 20:09:05;;;;;;;13.93;8.55;;;;;;;3.37;83.36;96428.63;6132785;23;20439;-67
2022/11/21 20:11:30;;;;;;;13.93;7.35;;;;;;;3.37;83.88;96428.63;6155399;23;20453;-67
2022/11/21 20:13:56;;;;;;;12.52;6.38;;;;;;;3.38;83.69;96422.53;6131229;23;20009;-67
2022/11/21 20:16:23;;;;;;;12.98;5.70;;;;;;;3.39;83.60;96424.19;6130999;23;20058;-67
2022/11/21 20:18:48;;;;;;;13.82;6.00;;;;;;;3.40;83.86;96407.69;6132690;23;20008;-67
2022/11/21 20:21:14;;;;;;;10.80;5.40;;;;;;;3.43;83.38;96417.88;6155533;23;20008;-67
2022/11/21 20:23:39;;;;;;;12.93;6.68;;;;;;;3.46;83.42;96411.66;6182509;23;20008;-67
2022/11/21 20:26:05;;;;;;;11.77;5.30;;;;;;;3.42;83.24;96400.66;6156297;23;20055;-66
2022/11/21 20:28:35;;;;;;;11.63;5.75;;;;;;;3.45;83.52;96377.13;6156292;23;20008;-67
2022/11/21 20:31:04;;;;;;;10.38;5.55;;;;;;;3.48;83.88;96361.38;6131775;23;20012;-67
2022/11/21 20:33:33;;;;;;;12.93;6.55;;;;;;;3.49;83.92;96346.63;6153779;23;20005;-67
2022/11/21 20:36:04;;;;;;;12.23;5.95;;;;;;;3.51;84.54;96337.81;6156633;23;20005;-67
2022/11/21 20:38:29;;;;;;;10.63;5.10;;;;;;;3.53;84.86;96341.13;6132633;23;20005;-67
2022/11/21 20:40:54;;;;;;;10.38;5.35;;;;;;;3.53;84.92;96341.13;6132206;23;20363;-67
2022/11/21 20:43:20;;;;;;;10.00;4.90;;;;;;;3.54;84.06;96342.81;6132564;23;20003;-67
2022/11/21 20:45:45;;;;;;;10.38;4.75;;;;;;;3.52;83.54;96360.22;6185334;23;20441;-67
2022/11/21 20:48:10;;;;;;;8.52;3.88;;;;;;;3.61;85.64;96378.66;6159176;23;20059;-67
2022/11/21 20:50:36;;;;;;;11.73;4.30;;;;;;;3.84;88.93;96374.44;6159545;23;20011;-67
2022/11/21 20:53:01;;;;;;;11.30;5.47;;;;;;;4.10;90.83;96357.03;6133681;23;20401;-67
2022/11/21 20:55:26;;;;;;;13.85;4.95;;;;;;;4.41;92.20;96348.69;6184433;23;20001;-67
2022/11/21 20:57:52;;;;;;;11.50;4.57;;;;;;;4.70;93.94;96349.13;6109741;23;20009;-67
2022/11/21 21:00:18;;;;;;;11.15;5.35;;;;;;;4.92;94.41;96340.56;6158898;23;20008;-67
2022/11/21 21:02:44;;;;;;;9.95;4.70;;;;;;;5.12;95.07;96328.63;6158803;23;20005;-67
